Time;durP1;ratioP1;P1;durP2;ratioP2;P2;SDS_P1;SDS_P2;PMS_P1;PMS_P2;Temp;Humidity;BMP_temperature;BMP_pressure;BME280_temperature;BME280_humidity;BME280_pressure;Samples;Min_cycle;Max_cycle;Signal;HPM_P1;HPM_P2
2021/12/06 00:01:23;;;;;;;0.17;0.17;;;1.30;99.90;226.50;231333.00;;;;5018907;28;20273;-74
2021/12/06 00:03:56;;;;;;;0.10;0.10;;;1.30;99.90;226.50;231333.00;;;;5017672;28;20246;-73
2021/12/06 00:06:29;;;;;;;0.10;0.10;;;1.30;99.90;226.50;231333.00;;;;5017328;28;20195;-74
2021/12/06 00:08:58;;;;;;;0.10;0.10;;;1.20;99.90;226.50;231333.00;;;;5017647;28;20257;-73
2021/12/06 00:11:27;;;;;;;0.10;0.10;;;1.20;99.90;226.50;231333.00;;;;5016347;28;20228;-75
2021/12/06 00:13:55;;;;;;;0.10;0.10;;;1.10;99.90;226.50;231333.00;;;;5017793;28;20232;-75
2021/12/06 00:16:24;;;;;;;0.10;0.10;;;1.00;99.90;226.50;231333.00;;;;5015630;28;20267;-75
2021/12/06 00:18:53;;;;;;;0.10;0.10;;;0.90;99.90;226.50;231333.00;;;;5017160;28;20238;-75
2021/12/06 00:21:23;;;;;;;0.10;0.10;;;0.90;99.90;226.50;231333.00;;;;5019296;28;20231;-75
2021/12/06 00:23:52;;;;;;;0.10;0.10;;;0.90;99.90;226.50;231333.00;;;;5018862;28;20191;-75
2021/12/06 00:26:21;;;;;;;0.10;0.10;;;1.00;99.90;226.50;231333.00;;;;5017148;28;20203;-75
2021/12/06 00:28:56;;;;;;;0.10;0.10;;;0.90;99.90;226.50;231333.00;;;;5017709;28;20195;-75
2021/12/06 00:31:31;;;;;;;0.10;0.10;;;1.00;99.90;226.50;231333.00;;;;5019722;28;20226;-75
2021/12/06 00:34:04;;;;;;;0.10;0.10;;;0.90;99.90;226.50;231333.00;;;;4999588;28;20360;-75
2021/12/06 00:36:33;;;;;;;0.13;0.13;;;0.90;99.90;226.50;231333.00;;;;5001250;28;20187;-75
2021/12/06 00:39:06;;;;;;;0.10;0.10;;;1.00;99.90;226.50;231333.00;;;;5015176;28;20245;-75
2021/12/06 00:41:37;;;;;;;0.10;0.10;;;1.00;99.90;226.50;231333.00;;;;5004353;28;20252;-75
2021/12/06 00:44:07;;;;;;;0.10;0.10;;;1.10;99.90;226.50;231333.00;;;;5019011;28;20211;-75
2021/12/06 00:46:35;;;;;;;0.10;0.10;;;1.20;99.90;226.50;231333.00;;;;5006811;28;20203;-75
2021/12/06 00:49:03;;;;;;;0.10;0.10;;;1.20;99.90;226.50;231333.00;;;;5014879;28;20200;-75
2021/12/06 00:51:31;;;;;;;0.10;0.10;;;1.30;99.90;226.50;231333.00;;;;5017235;28;20229;-75
2021/12/06 00:54:00;;;;;;;0.10;0.10;;;1.40;99.90;226.50;231333.00;;;;5013781;28;20661;-75
2021/12/06 00:56:28;;;;;;;0.10;0.10;;;1.40;99.90;226.50;231333.00;;;;5018312;28;20274;-75
2021/12/06 00:58:57;;;;;;;0.10;0.10;;;1.40;99.90;226.50;231333.00;;;;5018064;28;20195;-76
2021/12/06 01:01:25;;;;;;;0.10;0.10;;;1.50;99.90;226.50;231333.00;;;;5012748;28;20223;-75
2021/12/06 01:03:55;;;;;;;0.10;0.10;;;1.50;99.90;226.50;231333.00;;;;5003799;28;20247;-75
2021/12/06 01:06:23;;;;;;;0.10;0.10;;;1.40;99.90;226.50;231333.00;;;;5005435;28;20204;-75
2021/12/06 01:08:51;;;;;;;0.10;0.10;;;1.30;99.90;226.50;231333.00;;;;5019139;28;20212;-75
2021/12/06 01:11:20;;;;;;;0.10;0.10;;;1.20;99.90;226.50;231333.00;;;;5018611;28;20278;-75
2021/12/06 01:13:48;;;;;;;0.10;0.10;;;1.10;99.90;226.50;231333.00;;;;5002072;28;20218;-74
2021/12/06 01:16:19;;;;;;;0.10;0.10;;;1.00;99.90;226.50;231333.00;;;;5021837;28;20203;-74
2021/12/06 01:18:47;;;;;;;0.10;0.10;;;1.00;99.90;226.50;231333.00;;;;5019157;28;20575;-75
2021/12/06 01:21:25;;;;;;;0.10;0.10;;;1.10;99.90;226.50;231333.00;;;;5018797;28;20745;-75
2021/12/06 01:23:57;;;;;;;0.10;0.10;;;1.10;99.90;226.50;231333.00;;;;5020379;28;20657;-75
2021/12/06 01:26:39;;;;;;;0.10;0.10;;;1.10;99.90;226.50;231333.00;;;;5017709;28;20574;-75
2021/12/06 01:32:13;;;;;;;0.10;0.10;;;1.10;99.90;226.50;231333.00;;;;5011664;28;20589;-75
2021/12/06 01:40:13;;;;;;;0.10;0.10;;;1.20;99.90;226.50;231333.00;;;;5021056;28;20278;-75
2021/12/06 01:42:42;;;;;;;0.10;0.10;;;1.20;99.90;226.50;231333.00;;;;5009365;28;20223;-75
2021/12/06 01:45:10;;;;;;;0.10;0.10;;;1.20;99.90;226.50;231333.00;;;;5025472;28;20183;-75
2021/12/06 01:47:42;;;;;;;0.10;0.10;;;1.20;99.90;226.50;231333.00;;;;5023322;28;20195;-75
2021/12/06 01:50:20;;;;;;;0.10;0.10;;;1.20;99.90;226.50;231333.00;;;;5004682;28;20204;-75
2021/12/06 01:52:53;;;;;;;0.10;0.10;;;1.30;99.90;226.50;231333.00;;;;5001867;28;20639;-75
2021/12/06 01:55:26;;;;;;;0.05;0.05;;;1.30;99.90;226.50;231333.00;;;;5002315;28;20265;-75
2021/12/06 01:57:57;;;;;;;0.10;0.10;;;1.30;99.90;226.50;231333.00;;;;4998633;28;20206;-74
2021/12/06 02:00:32;;;;;;;0.10;0.10;;;1.20;99.90;226.50;231333.00;;;;5018510;28;20294;-75
2021/12/06 02:03:08;;;;;;;0.10;0.10;;;1.20;99.90;226.50;231333.00;;;;5019844;28;20230;-75
2021/12/06 02:05:41;;;;;;;0.10;0.10;;;1.20;99.90;226.50;231333.00;;;;5017900;28;20246;-75
2021/12/06 02:08:12;;;;;;;0.10;0.10;;;1.20;99.90;226.50;231333.00;;;;5020557;28;20183;-76
2021/12/06 02:10:41;;;;;;;0.10;0.10;;;1.20;99.90;226.50;231333.00;;;;5017586;28;20274;-75
2021/12/06 02:13:13;;;;;;;0.10;0.10;;;1.30;99.90;226.50;231333.00;;;;5003603;28;20200;-75
2021/12/06 02:15:46;;;;;;;0.10;0.10;;;1.20;99.90;226.50;231333.00;;;;5019949;28;20191;-75
2021/12/06 02:18:38;;;;;;;0.10;0.10;;;1.30;99.90;226.50;231333.00;;;;5008231;28;20196;-75
2021/12/06 02:21:20;;;;;;;0.10;0.10;;;1.30;99.90;226.50;231333.00;;;;5020508;28;20297;-75
2021/12/06 02:23:50;;;;;;;0.10;0.10;;;1.30;99.90;226.50;231333.00;;;;5000743;28;20235;-75
2021/12/06 02:26:22;;;;;;;0.10;0.10;;;1.30;99.90;226.50;231333.00;;;;5002298;28;20283;-75
2021/12/06 02:28:52;;;;;;;0.10;0.10;;;1.30;99.90;226.50;231333.00;;;;5016239;28;20208;-75
2021/12/06 02:31:25;;;;;;;0.10;0.10;;;1.30;99.90;226.50;231333.00;;;;5016541;28;20211;-75
2021/12/06 02:33:54;;;;;;;0.10;0.10;;;1.20;99.90;226.50;231333.00;;;;5006185;28;20212;-75
2021/12/06 02:36:26;;;;;;;0.10;0.10;;;1.20;99.90;226.50;231333.00;;;;5021143;28;20607;-75
2021/12/06 02:38:55;;;;;;;0.10;0.10;;;1.30;99.90;226.50;231333.00;;;;5019107;28;20188;-74
2021/12/06 02:41:24;;;;;;;0.10;0.10;;;1.40;99.90;226.50;231333.00;;;;5012875;28;20223;-75
2021/12/06 02:43:54;;;;;;;0.10;0.10;;;1.50;99.90;226.50;231333.00;;;;5018517;28;20242;-75
2021/12/06 02:46:23;;;;;;;0.10;0.10;;;1.70;99.90;226.50;231333.00;;;;5014758;28;20206;-75
2021/12/06 02:48:52;;;;;;;0.20;0.20;;;1.70;99.90;226.50;231333.00;;;;5017137;28;20557;-74
2021/12/06 02:51:21;;;;;;;0.10;0.10;;;1.80;99.90;226.50;231333.00;;;;5019391;28;20223;-74
2021/12/06 02:53:51;;;;;;;0.10;0.10;;;1.80;99.90;226.50;231333.00;;;;5008122;28;20209;-74
2021/12/06 02:56:32;;;;;;;0.10;0.10;;;1.90;99.90;226.50;231333.00;;;;5016308;28;20204;-74
2021/12/06 02:59:05;;;;;;;0.10;0.10;;;1.90;99.90;226.50;231333.00;;;;5017335;28;20207;-74
2021/12/06 03:01:39;;;;;;;0.10;0.10;;;1.90;99.90;226.50;231333.00;;;;5004322;28;20223;-74
2021/12/06 03:04:09;;;;;;;0.10;0.10;;;1.80;99.90;226.50;231333.00;;;;5017976;28;20233;-74
2021/12/06 03:06:40;;;;;;;0.10;0.10;;;1.70;99.90;226.50;231333.00;;;;5002938;28;20203;-75
2021/12/06 03:09:14;;;;;;;0.10;0.10;;;1.70;99.90;226.50;231333.00;;;;5016903;28;20281;-74
2021/12/06 03:11:47;;;;;;;0.10;0.10;;;1.70;99.90;226.50;231333.00;;;;5004812;28;20222;-74
2021/12/06 03:14:20;;;;;;;0.10;0.10;;;1.70;99.90;226.50;231333.00;;;;5002132;28;20211;-74
2021/12/06 03:16:53;;;;;;;0.10;0.10;;;1.70;99.90;226.50;231333.00;;;;5007165;28;20295;-74
2021/12/06 03:19:22;;;;;;;0.10;0.10;;;1.70;99.90;226.50;231333.00;;;;5002078;28;20223;-74
2021/12/06 03:21:51;;;;;;;0.10;0.10;;;1.60;99.90;226.50;231333.00;;;;5004912;28;20219;-75
2021/12/06 03:24:22;;;;;;;0.10;0.10;;;1.60;99.90;226.50;231333.00;;;;5017632;28;20222;-75
2021/12/06 03:26:53;;;;;;;0.10;0.10;;;1.60;99.90;226.50;231333.00;;;;5002345;28;20191;-74
2021/12/06 03:29:23;;;;;;;0.10;0.10;;;1.60;99.90;226.50;231333.00;;;;5001392;28;20192;-74
2021/12/06 03:31:52;;;;;;;0.10;0.10;;;1.60;99.90;226.50;231333.00;;;;5005701;28;20583;-75
2021/12/06 03:34:26;;;;;;;0.10;0.10;;;1.60;99.90;226.50;231333.00;;;;5014696;28;20210;-75
2021/12/06 03:36:57;;;;;;;0.10;0.10;;;1.60;99.90;226.50;231333.00;;;;5001688;28;20191;-75
2021/12/06 03:39:33;;;;;;;0.10;0.10;;;1.60;99.90;226.50;231333.00;;;;5000129;28;20195;-75
2021/12/06 03:42:06;;;;;;;0.10;0.10;;;1.60;99.90;226.50;231333.00;;;;5001692;28;20351;-74
2021/12/06 03:44:35;;;;;;;0.10;0.10;;;1.60;99.90;226.50;231333.00;;;;4998276;28;20254;-74
2021/12/06 03:47:07;;;;;;;0.10;0.10;;;1.50;99.90;226.50;231333.00;;;;5015569;28;20207;-74
2021/12/06 03:49:37;;;;;;;0.10;0.10;;;1.50;99.90;226.50;231333.00;;;;5013781;28;20195;-74
2021/12/06 03:52:06;;;;;;;0.10;0.10;;;1.40;99.90;226.50;231333.00;;;;5018044;28;20230;-74
2021/12/06 03:54:37;;;;;;;0.10;0.10;;;1.40;99.90;226.50;231333.00;;;;5007848;28;20601;-75
2021/12/06 03:57:08;;;;;;;0.10;0.10;;;1.30;99.90;226.50;231333.00;;;;4998525;28;20215;-75
2021/12/06 03:59:36;;;;;;;0.10;0.10;;;1.30;99.90;226.50;231333.00;;;;5018018;28;20276;-75
2021/12/06 04:02:06;;;;;;;0.10;0.10;;;1.40;99.90;226.50;231333.00;;;;5017472;28;20239;-74
2021/12/06 04:04:35;;;;;;;0.10;0.10;;;1.30;99.90;226.50;231333.00;;;;5017703;28;20232;-73
2021/12/06 04:07:08;;;;;;;0.10;0.10;;;1.40;99.90;226.50;231333.00;;;;5000436;28;20199;-74
2021/12/06 04:09:39;;;;;;;0.10;0.10;;;1.50;99.90;226.50;231333.00;;;;5017106;28;20191;-74
2021/12/06 04:12:11;;;;;;;0.10;0.10;;;1.50;99.90;226.50;231333.00;;;;4998957;28;20261;-75
2021/12/06 04:14:42;;;;;;;0.10;0.10;;;1.50;99.90;226.50;231333.00;;;;5005238;28;20303;-74
2021/12/06 04:17:12;;;;;;;0.10;0.10;;;1.50;99.90;226.50;231333.00;;;;5014612;28;20207;-73
2021/12/06 04:19:42;;;;;;;0.10;0.10;;;1.60;99.90;226.50;231333.00;;;;5000046;28;20727;-73
2021/12/06 04:22:13;;;;;;;0.10;0.10;;;1.60;99.90;226.50;231333.00;;;;5014820;28;20234;-73
2021/12/06 04:24:44;;;;;;;0.10;0.10;;;1.70;99.90;226.50;231333.00;;;;5017882;28;20215;-74
2021/12/06 04:27:15;;;;;;;0.10;0.10;;;1.70;99.90;226.50;231333.00;;;;5015753;28;20277;-73
2021/12/06 04:29:51;;;;;;;0.10;0.10;;;1.80;99.90;226.50;231333.00;;;;5001254;28;20202;-73
2021/12/06 04:32:23;;;;;;;0.10;0.10;;;1.80;99.90;226.50;231333.00;;;;5016703;28;20247;-73
2021/12/06 04:34:53;;;;;;;0.10;0.10;;;1.80;99.90;226.50;231333.00;;;;4999831;28;20583;-73
2021/12/06 04:37:21;;;;;;;0.10;0.10;;;1.80;99.90;226.50;231333.00;;;;5016900;28;20683;-74
2021/12/06 04:39:51;;;;;;;0.10;0.10;;;1.80;99.90;226.50;231333.00;;;;5017047;28;20615;-75
2021/12/06 04:42:20;;;;;;;0.10;0.10;;;1.90;99.90;226.50;231333.00;;;;5018568;28;20459;-75
2021/12/06 04:44:49;;;;;;;0.10;0.10;;;1.90;99.90;226.50;231333.00;;;;5019558;28;20270;-75
2021/12/06 04:47:19;;;;;;;0.10;0.10;;;1.80;99.90;226.50;231333.00;;;;5022464;28;20213;-75
2021/12/06 04:49:47;;;;;;;0.10;0.10;;;1.80;99.90;226.50;231333.00;;;;5022577;28;20215;-76
2021/12/06 04:52:18;;;;;;;0.10;0.10;;;1.70;99.90;226.50;231333.00;;;;5020897;28;20220;-76
2021/12/06 04:54:51;;;;;;;0.10;0.10;;;1.70;99.90;226.50;231333.00;;;;5004378;28;20287;-76
2021/12/06 04:57:25;;;;;;;0.10;0.10;;;1.80;99.90;226.50;231333.00;;;;5004102;28;20195;-75
2021/12/06 04:59:57;;;;;;;0.10;0.10;;;1.80;99.90;226.50;231333.00;;;;5003024;28;20196;-75
2021/12/06 05:02:32;;;;;;;0.10;0.10;;;1.80;99.90;226.50;231333.00;;;;5023326;28;20218;-76
2021/12/06 05:05:06;;;;;;;0.10;0.10;;;1.80;99.90;226.50;231333.00;;;;5022082;28;20230;-76
2021/12/06 05:07:40;;;;;;;0.10;0.10;;;1.80;99.90;226.50;231333.00;;;;5008206;28;20775;-76
2021/12/06 05:10:14;;;;;;;0.13;0.13;;;1.90;99.90;226.50;231333.00;;;;5024397;28;20235;-76
2021/12/06 05:12:46;;;;;;;0.10;0.10;;;2.00;99.90;226.50;231333.00;;;;5024006;28;20203;-75
2021/12/06 05:15:16;;;;;;;0.10;0.10;;;2.10;99.90;226.50;231333.00;;;;5007939;28;20633;-76
2021/12/06 05:17:44;;;;;;;0.10;0.10;;;2.20;99.90;226.50;231333.00;;;;5010537;28;20221;-75
2021/12/06 05:20:16;;;;;;;0.10;0.10;;;2.30;99.90;226.50;231333.00;;;;5008796;28;20211;-75
2021/12/06 05:22:47;;;;;;;0.10;0.10;;;2.40;99.90;226.50;231333.00;;;;5025289;28;20257;-75
2021/12/06 05:25:17;;;;;;;0.10;0.10;;;2.40;99.90;226.50;231333.00;;;;5016690;28;20222;-75
2021/12/06 05:27:47;;;;;;;0.10;0.10;;;2.50;99.90;226.50;231333.00;;;;5015191;28;20257;-75
2021/12/06 05:30:16;;;;;;;0.10;0.10;;;2.40;99.90;226.50;231333.00;;;;5027066;28;20687;-76
2021/12/06 05:32:44;;;;;;;0.10;0.10;;;2.40;99.90;226.50;231333.00;;;;5013577;28;20210;-76
2021/12/06 05:35:13;;;;;;;0.10;0.10;;;2.50;99.90;226.50;231333.00;;;;5021333;28;20290;-75
2021/12/06 05:37:46;;;;;;;0.08;0.08;;;2.50;99.90;226.50;231333.00;;;;5021710;28;20214;-75
2021/12/06 05:40:23;;;;;;;0.10;0.10;;;2.50;99.90;226.50;231333.00;;;;5021441;28;20200;-75
2021/12/06 05:42:51;;;;;;;0.10;0.10;;;2.50;99.90;226.50;231333.00;;;;5020542;28;20226;-75
2021/12/06 05:45:24;;;;;;;0.10;0.10;;;2.50;99.90;226.50;231333.00;;;;5020692;28;20218;-75
2021/12/06 05:47:53;;;;;;;0.10;0.10;;;2.60;99.90;226.50;231333.00;;;;5021099;28;20192;-75
2021/12/06 05:50:23;;;;;;;0.10;0.10;;;2.60;99.90;226.50;231333.00;;;;5021092;28;20203;-75
2021/12/06 05:52:54;;;;;;;0.10;0.10;;;2.60;99.90;226.50;231333.00;;;;5020998;28;20242;-75
2021/12/06 05:55:27;;;;;;;0.10;0.10;;;2.70;99.90;226.50;231333.00;;;;5018770;28;20194;-75
2021/12/06 05:57:59;;;;;;;0.10;0.10;;;2.70;99.90;226.50;231333.00;;;;5017990;28;20266;-75
2021/12/06 06:00:32;;;;;;;0.10;0.10;;;2.70;99.90;226.50;231333.00;;;;5018957;28;20727;-75
2021/12/06 06:03:03;;;;;;;0.10;0.10;;;2.70;99.90;226.50;231333.00;;;;5019410;28;20206;-75
2021/12/06 06:05:32;;;;;;;0.10;0.10;;;2.70;99.90;226.50;231333.00;;;;5018985;28;20230;-76
2021/12/06 06:08:01;;;;;;;0.10;0.10;;;2.70;99.90;226.50;231333.00;;;;5019154;28;20222;-75
2021/12/06 06:10:31;;;;;;;0.10;0.10;;;2.70;99.90;226.50;231333.00;;;;5021300;28;20245;-76
2021/12/06 06:13:00;;;;;;;0.10;0.10;;;2.70;99.90;226.50;231333.00;;;;5021172;28;20680;-76
2021/12/06 06:15:29;;;;;;;0.10;0.10;;;2.80;99.90;226.50;231333.00;;;;5021321;28;20278;-75
2021/12/06 06:17:59;;;;;;;0.20;0.20;;;2.80;99.90;226.50;231333.00;;;;5020449;28;20246;-75
2021/12/06 06:20:34;;;;;;;0.10;0.10;;;2.70;99.90;226.50;231333.00;;;;5023149;28;20200;-76
2021/12/06 06:23:03;;;;;;;0.10;0.10;;;2.70;99.90;226.50;231333.00;;;;5024499;28;20203;-76
2021/12/06 06:25:33;;;;;;;0.10;0.10;;;2.70;99.90;226.50;231333.00;;;;5022344;28;20215;-76
2021/12/06 06:28:01;;;;;;;0.10;0.10;;;2.70;99.90;226.50;231333.00;;;;5023304;28;20204;-76
2021/12/06 06:30:30;;;;;;;0.10;0.10;;;2.70;99.90;226.50;231333.00;;;;5024706;28;20195;-76
2021/12/06 06:32:58;;;;;;;0.10;0.10;;;2.70;99.90;226.50;231333.00;;;;5023039;28;20660;-75
2021/12/06 06:35:27;;;;;;;0.10;0.10;;;2.70;99.90;226.50;231333.00;;;;5021309;28;20211;-77
2021/12/06 06:37:55;;;;;;;0.10;0.10;;;2.70;99.90;226.50;231333.00;;;;5020772;28;20732;-76
2021/12/06 06:40:23;;;;;;;0.10;0.10;;;2.70;99.90;226.50;231333.00;;;;5020615;28;20307;-74
2021/12/06 06:42:53;;;;;;;0.10;0.10;;;2.70;99.90;226.50;231333.00;;;;5025390;28;20195;-75
2021/12/06 06:45:22;;;;;;;0.10;0.10;;;2.70;99.90;226.50;231333.00;;;;5024755;28;20468;-76
2021/12/06 06:47:52;;;;;;;0.17;0.17;;;2.70;99.90;226.50;231333.00;;;;5024939;28;20209;-75
2021/12/06 06:50:21;;;;;;;0.10;0.10;;;2.70;99.90;226.50;231333.00;;;;5023458;28;20261;-76
2021/12/06 06:52:50;;;;;;;0.10;0.10;;;2.70;99.90;226.50;231333.00;;;;5021235;28;20203;-75
2021/12/06 06:55:20;;;;;;;0.10;0.10;;;2.70;99.90;226.50;231333.00;;;;5019975;28;20218;-74
2021/12/06 06:57:51;;;;;;;0.10;0.10;;;2.70;99.90;226.50;231333.00;;;;5018352;28;20223;-74
2021/12/06 07:00:23;;;;;;;0.10;0.10;;;2.80;99.90;226.50;231333.00;;;;5021242;28;20615;-75
2021/12/06 07:02:52;;;;;;;0.10;0.10;;;2.70;99.90;226.50;231333.00;;;;5020526;28;20195;-77
2021/12/06 07:05:21;;;;;;;0.10;0.10;;;2.70;99.90;226.50;231333.00;;;;5020925;28;20218;-75
2021/12/06 07:07:49;;;;;;;0.10;0.10;;;2.70;99.90;226.50;231333.00;;;;5019122;28;20200;-75
2021/12/06 07:10:17;;;;;;;0.10;0.10;;;2.70;99.90;226.50;231333.00;;;;5021798;28;20652;-74
2021/12/06 07:12:48;;;;;;;0.10;0.10;;;2.70;99.90;226.50;231333.00;;;;5020032;28;20238;-74
2021/12/06 07:15:21;;;;;;;0.10;0.10;;;2.70;99.90;226.50;231333.00;;;;5021549;28;20199;-76
2021/12/06 07:17:51;;;;;;;0.10;0.10;;;2.70;99.90;226.50;231333.00;;;;5019377;28;20207;-75
2021/12/06 07:20:20;;;;;;;0.10;0.10;;;2.70;99.90;226.50;231333.00;;;;5019112;28;20207;-74
2021/12/06 07:22:52;;;;;;;0.10;0.10;;;2.70;99.90;226.50;231333.00;;;;5021349;28;20207;-75
2021/12/06 07:25:24;;;;;;;0.10;0.10;;;2.70;99.90;226.50;231333.00;;;;5020581;28;20234;-77
2021/12/06 07:27:54;;;;;;;0.10;0.10;;;2.70;99.90;226.50;231333.00;;;;5019291;28;20690;-74
2021/12/06 07:30:24;;;;;;;0.10;0.10;;;2.70;99.90;226.50;231333.00;;;;5018753;28;20196;-75
2021/12/06 07:32:52;;;;;;;0.10;0.10;;;2.70;99.90;226.50;231333.00;;;;5020118;28;20246;-76
2021/12/06 07:35:21;;;;;;;0.10;0.10;;;2.70;99.90;226.50;231333.00;;;;5018799;28;20207;-75
2021/12/06 07:37:49;;;;;;;0.10;0.10;;;2.70;99.90;226.50;231333.00;;;;5021983;28;20716;-74
2021/12/06 07:40:18;;;;;;;0.10;0.10;;;2.70;99.90;226.50;231333.00;;;;5024592;28;20281;-74
2021/12/06 07:42:48;;;;;;;0.10;0.10;;;2.70;99.90;226.50;231333.00;;;;5024406;28;20210;-74
2021/12/06 07:45:17;;;;;;;0.10;0.10;;;2.70;99.90;226.50;231333.00;;;;5021965;28;20692;-74
2021/12/06 07:47:48;;;;;;;0.10;0.10;;;2.70;99.90;226.50;231333.00;;;;5026995;28;20195;-74
2021/12/06 07:50:21;;;;;;;0.10;0.10;;;2.70;99.90;226.50;231333.00;;;;5022402;28;20238;-74
2021/12/06 07:52:52;;;;;;;0.10;0.10;;;2.70;99.90;226.50;231333.00;;;;5022450;28;20191;-74
2021/12/06 07:55:24;;;;;;;0.10;0.10;;;2.70;99.90;226.50;231333.00;;;;5022504;28;20270;-74
2021/12/06 07:57:56;;;;;;;0.10;0.10;;;2.70;99.90;226.50;231333.00;;;;5006242;28;20202;-77
2021/12/06 08:00:28;;;;;;;0.10;0.10;;;2.80;99.90;226.50;231333.00;;;;5021857;28;20246;-75
2021/12/06 08:02:58;;;;;;;0.10;0.10;;;2.80;99.90;226.50;231333.00;;;;5021375;28;20210;-74
2021/12/06 08:05:30;;;;;;;0.10;0.10;;;2.80;99.90;226.50;231333.00;;;;5020936;28;20210;-77
2021/12/06 08:08:02;;;;;;;0.10;0.10;;;2.80;99.90;226.50;231333.00;;;;5021608;28;20199;-73
2021/12/06 08:10:34;;;;;;;0.10;0.10;;;2.80;99.90;226.50;231333.00;;;;5024867;28;20207;-72
2021/12/06 08:13:02;;;;;;;0.10;0.10;;;2.80;99.90;226.50;231333.00;;;;5024309;28;20198;-75
2021/12/06 08:15:31;;;;;;;0.10;0.10;;;2.80;99.90;226.50;231333.00;;;;5022017;28;20217;-74
2021/12/06 08:18:01;;;;;;;0.10;0.10;;;2.80;99.90;226.50;231333.00;;;;5019627;28;20210;-74
2021/12/06 08:20:29;;;;;;;0.10;0.10;;;2.70;99.90;226.50;231333.00;;;;5023801;28;20586;-75
2021/12/06 08:22:57;;;;;;;0.10;0.10;;;2.70;99.90;226.50;231333.00;;;;5024271;28;20191;-75
2021/12/06 08:25:25;;;;;;;0.10;0.10;;;2.70;99.90;226.50;231333.00;;;;5025132;28;20207;-76
2021/12/06 08:27:54;;;;;;;0.10;0.10;;;2.70;99.90;226.50;231333.00;;;;5025082;28;20208;-74
2021/12/06 08:30:24;;;;;;;0.10;0.10;;;2.80;99.90;226.50;231333.00;;;;5021116;28;20615;-72
2021/12/06 08:32:56;;;;;;;0.10;0.10;;;2.80;99.90;226.50;231333.00;;;;5003834;28;20187;-72
2021/12/06 08:35:39;;;;;;;0.10;0.10;;;2.80;99.90;226.50;231333.00;;;;5023076;28;20262;-72
2021/12/06 08:38:10;;;;;;;0.10;0.10;;;2.80;99.90;226.50;231333.00;;;;5022677;28;20195;-73
2021/12/06 08:40:40;;;;;;;0.10;0.10;;;2.80;99.90;226.50;231333.00;;;;5021897;28;20230;-74
2021/12/06 08:43:09;;;;;;;0.10;0.10;;;2.80;99.90;226.50;231333.00;;;;5022463;28;20253;-73
2021/12/06 08:45:38;;;;;;;0.10;0.10;;;2.70;99.90;226.50;231333.00;;;;5021578;28;20207;-74
2021/12/06 08:48:06;;;;;;;0.10;0.10;;;2.70;99.90;226.50;231333.00;;;;5021898;28;20213;-75
2021/12/06 08:50:35;;;;;;;0.10;0.10;;;2.70;99.90;226.50;231333.00;;;;5022796;28;20224;-74
2021/12/06 08:53:03;;;;;;;0.10;0.10;;;2.70;99.90;226.50;231333.00;;;;5023377;28;20567;-75
2021/12/06 08:55:32;;;;;;;0.10;0.10;;;2.80;99.90;226.50;231333.00;;;;5023844;28;20597;-74
2021/12/06 08:58:00;;;;;;;0.10;0.10;;;2.80;99.90;226.50;231333.00;;;;5023304;28;20210;-75
2021/12/06 09:00:33;;;;;;;0.10;0.10;;;2.80;99.90;226.50;231333.00;;;;5022066;28;20592;-74
2021/12/06 09:03:03;;;;;;;0.10;0.10;;;2.80;99.90;226.50;231333.00;;;;5024735;28;20200;-75
2021/12/06 09:05:41;;;;;;;0.10;0.10;;;2.80;99.90;226.50;231333.00;;;;5022939;28;20203;-73
2021/12/06 09:08:11;;;;;;;0.10;0.10;;;2.70;99.90;226.50;231333.00;;;;5022713;28;20757;-72
2021/12/06 09:10:44;;;;;;;0.10;0.10;;;2.70;99.90;226.50;231333.00;;;;5021624;28;20222;-73
2021/12/06 09:13:12;;;;;;;0.10;0.10;;;2.70;99.90;226.50;231333.00;;;;5022164;28;20199;-73
2021/12/06 09:15:40;;;;;;;0.10;0.10;;;2.60;99.90;226.50;231333.00;;;;5036711;28;20766;-72
2021/12/06 09:18:08;;;;;;;0.10;0.10;;;2.60;99.90;226.50;231333.00;;;;5037882;28;20219;-72
2021/12/06 09:20:42;;;;;;;0.10;0.10;;;2.60;99.90;226.50;231333.00;;;;5031801;28;20219;-73
2021/12/06 09:23:12;;;;;;;0.10;0.10;;;2.60;99.90;226.50;231333.00;;;;5020965;28;20199;-73
2021/12/06 09:25:42;;;;;;;0.10;0.10;;;2.70;99.90;226.50;231333.00;;;;5019605;28;20211;-73
2021/12/06 09:28:12;;;;;;;0.10;0.10;;;2.70;99.90;226.50;231333.00;;;;5020992;28;20277;-73
2021/12/06 09:30:41;;;;;;;0.10;0.10;;;2.80;99.90;226.50;231333.00;;;;5021148;28;20704;-74
2021/12/06 09:33:13;;;;;;;0.10;0.10;;;2.80;99.90;226.50;231333.00;;;;5020863;28;20247;-74
2021/12/06 09:35:47;;;;;;;0.10;0.10;;;2.80;99.90;226.50;231333.00;;;;5022957;28;20221;-75
2021/12/06 09:38:22;;;;;;;0.10;0.10;;;2.80;99.90;226.50;231333.00;;;;5024146;28;20196;-74
2021/12/06 09:40:53;;;;;;;0.10;0.10;;;2.70;99.90;226.50;231333.00;;;;5017974;28;20234;-74
2021/12/06 09:43:24;;;;;;;0.10;0.10;;;2.80;99.90;226.50;231333.00;;;;5021568;28;20191;-72
2021/12/06 09:45:53;;;;;;;0.10;0.10;;;2.80;99.90;226.50;231333.00;;;;5020185;28;20245;-74
2021/12/06 09:48:23;;;;;;;0.10;0.10;;;2.80;99.90;226.50;231333.00;;;;5021163;28;20192;-73
2021/12/06 09:50:59;;;;;;;0.10;0.10;;;2.80;99.90;226.50;231333.00;;;;5021523;28;20246;-76
2021/12/06 09:53:35;;;;;;;0.10;0.10;;;2.80;99.90;226.50;231333.00;;;;5020948;28;20672;-77
2021/12/06 09:56:08;;;;;;;0.08;0.08;;;2.80;99.90;226.50;231333.00;;;;5021575;28;21400;-74
2021/12/06 09:58:38;;;;;;;0.10;0.10;;;2.80;99.90;226.50;231333.00;;;;5022399;28;20203;-74
2021/12/06 10:01:13;;;;;;;0.10;0.10;;;2.80;99.90;226.50;231333.00;;;;5021138;28;20223;-74
2021/12/06 10:03:44;;;;;;;0.10;0.10;;;2.70;99.90;226.50;231333.00;;;;5019728;28;20194;-75
2021/12/06 10:06:14;;;;;;;0.10;0.10;;;2.80;99.90;226.50;231333.00;;;;5022796;28;20254;-74
2021/12/06 10:08:45;;;;;;;0.10;0.10;;;2.80;99.90;226.50;231333.00;;;;5021005;28;20653;-74
2021/12/06 10:11:16;;;;;;;0.10;0.10;;;2.70;99.90;226.50;231333.00;;;;5022860;28;20227;-75
2021/12/06 10:13:45;;;;;;;0.10;0.10;;;2.70;99.90;226.50;231333.00;;;;5022428;28;20196;-75
2021/12/06 10:16:15;;;;;;;0.10;0.10;;;2.70;99.90;226.50;231333.00;;;;5026872;28;20194;-75
2021/12/06 10:18:44;;;;;;;0.13;0.13;;;2.70;99.90;226.50;231333.00;;;;5028065;28;20237;-75
2021/12/06 10:21:14;;;;;;;0.10;0.10;;;2.70;99.90;226.50;231333.00;;;;5023743;28;20232;-73
2021/12/06 10:23:43;;;;;;;0.10;0.10;;;2.70;99.90;226.50;231333.00;;;;5022951;28;20199;-73
2021/12/06 10:26:17;;;;;;;0.10;0.10;;;2.60;99.90;226.50;231333.00;;;;5020340;28;20274;-73
2021/12/06 10:28:45;;;;;;;0.10;0.10;;;2.60;99.90;226.50;231333.00;;;;5016456;28;20211;-73
2021/12/06 10:31:16;;;;;;;0.10;0.10;;;2.60;99.90;226.50;231333.00;;;;5019955;28;20215;-73
2021/12/06 10:33:48;;;;;;;0.10;0.10;;;2.60;99.90;226.50;231333.00;;;;5019372;28;20288;-73
2021/12/06 10:36:19;;;;;;;0.10;0.10;;;2.60;99.90;226.50;231333.00;;;;5021208;28;20613;-73
2021/12/06 10:38:53;;;;;;;0.10;0.10;;;2.60;99.90;226.50;231333.00;;;;5019501;28;20195;-73
2021/12/06 10:41:26;;;;;;;0.10;0.10;;;2.60;99.90;226.50;231333.00;;;;5020173;28;20219;-72
2021/12/06 10:43:58;;;;;;;0.10;0.10;;;2.60;99.90;226.50;231333.00;;;;5020605;28;20290;-75
2021/12/06 10:46:29;;;;;;;0.10;0.10;;;2.60;99.90;226.50;231333.00;;;;5022949;28;20745;-75
2021/12/06 10:49:01;;;;;;;0.10;0.10;;;2.60;99.90;226.50;231333.00;;;;5023664;28;21013;-75
2021/12/06 10:51:36;;;;;;;0.10;0.10;;;2.50;99.90;226.50;231333.00;;;;5023219;28;20254;-78
2021/12/06 10:54:09;;;;;;;0.10;0.10;;;2.50;99.90;226.50;231333.00;;;;5022465;28;20566;-75
2021/12/06 10:56:44;;;;;;;0.10;0.10;;;2.50;99.90;226.50;231333.00;;;;5023016;28;20284;-75
2021/12/06 10:59:19;;;;;;;0.10;0.10;;;2.50;99.90;226.50;231333.00;;;;5021462;28;20217;-75
2021/12/06 11:01:50;;;;;;;0.10;0.10;;;2.40;99.90;226.50;231333.00;;;;5017617;28;20240;-75
2021/12/06 11:04:24;;;;;;;0.10;0.10;;;2.40;99.90;226.50;231333.00;;;;5019236;28;20195;-75
2021/12/06 11:07:01;;;;;;;0.10;0.10;;;2.40;99.90;226.50;231333.00;;;;5017622;28;20212;-74
2021/12/06 11:09:31;;;;;;;0.13;0.13;;;2.40;99.90;226.50;231333.00;;;;5020667;28;20249;-75
2021/12/06 11:12:04;;;;;;;0.10;0.10;;;2.40;99.90;226.50;231333.00;;;;5017774;28;20211;-74